Hemel Hempstead (Grovehill) weather

 Latitude N 51° 46' 21"    Longitude W 00° 27' 08"    Elevation 142 m


Nearby METAR Reports

 

EGGW - Luton Airport, United Kingdom
Distance from station: NNE 7mi, 12km
Updated: Sat, 24-Feb-2018 1:50pm GMT
Clear
Clear
 Wind from E
Wind: E 14 mph , 22 km/h
Temperature: 5°C
Wind Chill: 1°C
Dew Point: -6°C
Humidity: 45%
Barometer: 1021 hPa
Clouds: Clear
Visibility: 6 miles , 10 km
2018/02/24 13:50 EGGW 241350Z AUTO 09012KT 9999 NCD 05/M06 Q1021
EGWU - Northolt Raf, United Kingdom
Distance from station: S 15mi, 25km
Updated: Sat, 24-Feb-2018 12:50pm GMT
Clear
Clear
 Wind from E
Wind: E 14 mph , 22 km/h
Temperature: 5°C
Wind Chill: 1°C
Dew Point: -6°C
Humidity: 45%
Barometer: 1021 hPa
Summary: Clear
Visibility: greater than 7 miles , 10 km
2018/02/24 12:50 EGWU 241250Z 09012KT CAVOK 05/M06 Q1021 NOSIG
 
EGLL - London/Heathrow, United Kingdom
Distance from station: S 20mi, 32km
Updated: Sat, 24-Feb-2018 1:50pm GMT
Clear
Clear
 Wind from ENE
Wind: ENE 14 mph , 22 km/h
Temperature: 6°C
Wind Chill: 2°C
Dew Point: -5°C
Humidity: 46%
Barometer: 1021 hPa
Clouds: Clear
Visibility: 6 miles , 10 km
2018/02/24 13:50 EGLL 241350Z AUTO 07012KT 9999 NCD 06/M05 Q1021
EGUB - Benson Raf, United Kingdom
Distance from station: WSW 28mi, 46km
Updated: Sat, 24-Feb-2018 12:50pm GMT
Clear
Clear
 Wind from NE
Wind: NE 14 mph , 22 km/h
Temperature: 5°C
Wind Chill: 1°C
Dew Point: -4°C
Humidity: 53%
Barometer: 1021 hPa
Summary: Clear
Visibility: greater than 7 miles , 10 km
2018/02/24 12:50 EGUB 241250Z 05012KT CAVOK 05/M04 Q1021 BLU NOSIG
 
EGLC - London City Airp, United Kingdom
Distance from station: SE 29mi, 46km
Updated: Sat, 24-Feb-2018 1:50pm GMT
Clear
Clear
 Wind from E
Wind: E 21 mph , 33 km/h, Gust: 33 mph , 54 km/h
Temperature: 5°C
Wind Chill: 0°C
Dew Point: -5°C
Humidity: 49%
Barometer: 1022 hPa
Clouds: Clear
Visibility: 6 miles , 10 km
2018/02/24 13:50 EGLC 241350Z AUTO 09018G29KT 9999 NCD 05/M05 Q1022
EGSS - Stansted Airport, United Kingdom
Distance from station: ENE 30mi, 48km
Updated: Sat, 24-Feb-2018 1:50pm GMT
Clear
Clear
 Wind from E
Wind: E 20 mph , 31 km/h
Temperature: 5°C
Wind Chill: 0°C
Dew Point: -5°C
Humidity: 49%
Barometer: 1022 hPa
Clouds: Clear
Visibility: 6 miles , 10 km
2018/02/24 13:50 EGSS 241350Z AUTO 09017KT 9999 NCD 05/M05 Q1022

Metar display script from Saratoga-Weather.org

:now: :gauges: :today/yesterday: :month/year: :records: :monthly records: :graphs: :Metar reports: :NOAA reports: :Rain/ET: :GDD MetOffice: :GDD NOAA: :season averages: :data summary: :system info: ::forum:


Page updated 04/09/2016 09:20:01
powered by Cumulus v1.9.4 (1099)